sensor_id;sensor_type;location;lat;lon;timestamp;P1;durP1;ratioP1;P2;durP2;ratioP2
34248;SDS011;20508;50.834;3.160;2022-07-23T00:00:31;1.60;;;1.50;;
34248;SDS011;20508;50.834;3.160;2022-07-23T00:03:14;2.33;;;1.85;;
34248;SDS011;20508;50.834;3.160;2022-07-23T00:05:43;2.58;;;1.65;;
34248;SDS011;20508;50.834;3.160;2022-07-23T00:08:25;2.33;;;1.60;;
34248;SDS011;20508;50.834;3.160;2022-07-23T00:11:02;4.35;;;1.95;;
34248;SDS011;20508;50.834;3.160;2022-07-23T00:13:59;2.40;;;1.73;;
34248;SDS011;20508;50.834;3.160;2022-07-23T00:16:33;2.08;;;1.60;;
34248;SDS011;20508;50.834;3.160;2022-07-23T00:19:41;2.35;;;1.60;;
34248;SDS011;20508;50.834;3.160;2022-07-23T00:25:38;2.47;;;1.70;;
34248;SDS011;20508;50.834;3.160;2022-07-23T00:28:35;3.35;;;2.15;;
34248;SDS011;20508;50.834;3.160;2022-07-23T00:31:14;2.15;;;1.50;;
34248;SDS011;20508;50.834;3.160;2022-07-23T00:34:00;4.25;;;1.58;;
34248;SDS011;20508;50.834;3.160;2022-07-23T00:36:29;1.45;;;1.30;;
34248;SDS011;20508;50.834;3.160;2022-07-23T00:39:10;3.58;;;2.15;;
34248;SDS011;20508;50.834;3.160;2022-07-23T00:41:55;1.40;;;1.23;;
34248;SDS011;20508;50.834;3.160;2022-07-23T00:44:37;2.38;;;1.50;;
34248;SDS011;20508;50.834;3.160;2022-07-23T00:47:08;2.28;;;1.65;;
34248;SDS011;20508;50.834;3.160;2022-07-23T00:49:57;1.88;;;1.58;;
34248;SDS011;20508;50.834;3.160;2022-07-23T00:52:39;3.03;;;1.73;;
34248;SDS011;20508;50.834;3.160;2022-07-23T00:57:54;2.03;;;1.80;;
34248;SDS011;20508;50.834;3.160;2022-07-23T01:00:38;2.45;;;1.70;;
34248;SDS011;20508;50.834;3.160;2022-07-23T01:03:09;2.27;;;1.70;;
34248;SDS011;20508;50.834;3.160;2022-07-23T01:06:16;2.05;;;1.77;;
34248;SDS011;20508;50.834;3.160;2022-07-23T01:08:54;2.25;;;1.48;;
34248;SDS011;20508;50.834;3.160;2022-07-23T01:14:37;1.80;;;1.63;;
34248;SDS011;20508;50.834;3.160;2022-07-23T01:17:28;2.20;;;1.98;;
34248;SDS011;20508;50.834;3.160;2022-07-23T01:20:37;2.40;;;1.50;;
34248;SDS011;20508;50.834;3.160;2022-07-23T01:23:14;1.58;;;1.38;;
34248;SDS011;20508;50.834;3.160;2022-07-23T01:28:43;2.28;;;1.80;;
34248;SDS011;20508;50.834;3.160;2022-07-23T01:31:17;2.60;;;2.22;;
34248;SDS011;20508;50.834;3.160;2022-07-23T01:34:09;1.67;;;1.40;;
34248;SDS011;20508;50.834;3.160;2022-07-23T01:36:47;2.88;;;1.88;;
34248;SDS011;20508;50.834;3.160;2022-07-23T01:39:38;1.92;;;1.70;;
34248;SDS011;20508;50.834;3.160;2022-07-23T01:42:38;1.83;;;1.73;;
34248;SDS011;20508;50.834;3.160;2022-07-23T01:45:08;1.60;;;1.40;;
34248;SDS011;20508;50.834;3.160;2022-07-23T01:48:11;2.90;;;2.60;;
34248;SDS011;20508;50.834;3.160;2022-07-23T01:50:50;1.88;;;1.45;;
34248;SDS011;20508;50.834;3.160;2022-07-23T01:53:28;3.30;;;2.05;;
34248;SDS011;20508;50.834;3.160;2022-07-23T01:59:13;1.73;;;1.63;;
34248;SDS011;20508;50.834;3.160;2022-07-23T02:02:09;1.77;;;1.55;;
34248;SDS011;20508;50.834;3.160;2022-07-23T02:04:46;1.65;;;1.50;;
34248;SDS011;20508;50.834;3.160;2022-07-23T02:07:15;2.58;;;2.10;;
34248;SDS011;20508;50.834;3.160;2022-07-23T02:09:53;2.50;;;2.30;;
34248;SDS011;20508;50.834;3.160;2022-07-23T02:12:44;2.33;;;2.08;;
34248;SDS011;20508;50.834;3.160;2022-07-23T02:15:28;2.42;;;2.22;;
34248;SDS011;20508;50.834;3.160;2022-07-23T02:18:14;3.10;;;1.80;;
34248;SDS011;20508;50.834;3.160;2022-07-23T02:21:19;3.75;;;2.15;;
34248;SDS011;20508;50.834;3.160;2022-07-23T02:24:15;2.75;;;2.05;;
34248;SDS011;20508;50.834;3.160;2022-07-23T02:27:18;2.15;;;1.95;;
34248;SDS011;20508;50.834;3.160;2022-07-23T02:33:14;2.63;;;1.53;;
34248;SDS011;20508;50.834;3.160;2022-07-23T02:35:56;3.05;;;2.10;;
34248;SDS011;20508;50.834;3.160;2022-07-23T02:38:38;2.35;;;2.05;;
34248;SDS011;20508;50.834;3.160;2022-07-23T02:41:38;2.58;;;1.73;;
34248;SDS011;20508;50.834;3.160;2022-07-23T02:44:26;2.08;;;1.83;;
34248;SDS011;20508;50.834;3.160;2022-07-23T02:47:10;2.30;;;2.10;;
34248;SDS011;20508;50.834;3.160;2022-07-23T02:49:57;3.42;;;1.77;;
34248;SDS011;20508;50.834;3.160;2022-07-23T02:52:33;2.00;;;1.80;;
34248;SDS011;20508;50.834;3.160;2022-07-23T02:55:25;1.88;;;1.77;;
34248;SDS011;20508;50.834;3.160;2022-07-23T03:00:53;2.42;;;1.70;;
34248;SDS011;20508;50.834;3.160;2022-07-23T03:04:09;1.88;;;1.70;;
34248;SDS011;20508;50.834;3.160;2022-07-23T03:07:14;2.13;;;1.92;;
34248;SDS011;20508;50.834;3.160;2022-07-23T03:09:42;1.83;;;1.40;;
34248;SDS011;20508;50.834;3.160;2022-07-23T03:12:46;2.10;;;1.85;;
34248;SDS011;20508;50.834;3.160;2022-07-23T03:15:17;2.20;;;1.83;;
34248;SDS011;20508;50.834;3.160;2022-07-23T03:17:54;2.05;;;1.90;;
34248;SDS011;20508;50.834;3.160;2022-07-23T03:21:04;1.60;;;1.50;;
34248;SDS011;20508;50.834;3.160;2022-07-23T03:23:34;1.65;;;1.50;;
34248;SDS011;20508;50.834;3.160;2022-07-23T03:26:10;2.08;;;1.48;;
34248;SDS011;20508;50.834;3.160;2022-07-23T03:28:46;1.85;;;1.67;;
34248;SDS011;20508;50.834;3.160;2022-07-23T03:31:55;2.35;;;1.85;;
34248;SDS011;20508;50.834;3.160;2022-07-23T03:34:43;3.17;;;2.17;;
34248;SDS011;20508;50.834;3.160;2022-07-23T03:37:21;2.90;;;2.00;;
34248;SDS011;20508;50.834;3.160;2022-07-23T03:40:34;1.90;;;1.67;;
34248;SDS011;20508;50.834;3.160;2022-07-23T03:43:21;2.25;;;2.05;;
34248;SDS011;20508;50.834;3.160;2022-07-23T03:46:11;3.10;;;2.05;;
34248;SDS011;20508;50.834;3.160;2022-07-23T03:49:10;1.80;;;1.70;;
34248;SDS011;20508;50.834;3.160;2022-07-23T03:52:24;1.70;;;1.60;;
34248;SDS011;20508;50.834;3.160;2022-07-23T03:55:30;2.08;;;1.92;;
34248;SDS011;20508;50.834;3.160;2022-07-23T03:58:12;2.17;;;1.67;;
34248;SDS011;20508;50.834;3.160;2022-07-23T04:04:33;1.70;;;1.55;;
34248;SDS011;20508;50.834;3.160;2022-07-23T04:07:26;1.55;;;1.45;;
34248;SDS011;20508;50.834;3.160;2022-07-23T04:13:07;2.88;;;2.22;;
34248;SDS011;20508;50.834;3.160;2022-07-23T04:16:08;1.95;;;1.83;;
34248;SDS011;20508;50.834;3.160;2022-07-23T04:18:39;2.42;;;1.80;;
34248;SDS011;20508;50.834;3.160;2022-07-23T04:21:41;2.03;;;1.83;;
34248;SDS011;20508;50.834;3.160;2022-07-23T04:24:27;3.28;;;2.40;;
34248;SDS011;20508;50.834;3.160;2022-07-23T04:27:06;1.70;;;1.60;;
34248;SDS011;20508;50.834;3.160;2022-07-23T04:30:03;2.22;;;2.03;;
34248;SDS011;20508;50.834;3.160;2022-07-23T04:32:34;2.45;;;2.00;;
34248;SDS011;20508;50.834;3.160;2022-07-23T04:35:33;3.10;;;2.33;;
34248;SDS011;20508;50.834;3.160;2022-07-23T04:38:17;2.17;;;1.98;;
34248;SDS011;20508;50.834;3.160;2022-07-23T04:41:40;2.50;;;2.25;;
34248;SDS011;20508;50.834;3.160;2022-07-23T04:44:20;2.92;;;2.72;;
34248;SDS011;20508;50.834;3.160;2022-07-23T04:46:52;3.05;;;2.85;;
34248;SDS011;20508;50.834;3.160;2022-07-23T04:52:48;3.33;;;3.03;;
34248;SDS011;20508;50.834;3.160;2022-07-23T04:55:47;4.00;;;3.05;;
34248;SDS011;20508;50.834;3.160;2022-07-23T04:58:39;3.90;;;2.88;;
34248;SDS011;20508;50.834;3.160;2022-07-23T05:01:22;3.30;;;3.05;;
34248;SDS011;20508;50.834;3.160;2022-07-23T05:03:48;3.28;;;2.85;;
34248;SDS011;20508;50.834;3.160;2022-07-23T05:06:24;2.80;;;2.58;;
34248;SDS011;20508;50.834;3.160;2022-07-23T05:09:05;3.38;;;2.85;;
34248;SDS011;20508;50.834;3.160;2022-07-23T05:11:51;3.53;;;3.22;;
34248;SDS011;20508;50.834;3.160;2022-07-23T05:14:29;4.60;;;3.17;;
34248;SDS011;20508;50.834;3.160;2022-07-23T05:17:30;3.55;;;2.92;;
34248;SDS011;20508;50.834;3.160;2022-07-23T05:19:59;2.63;;;2.42;;
34248;SDS011;20508;50.834;3.160;2022-07-23T05:22:48;4.25;;;2.60;;
34248;SDS011;20508;50.834;3.160;2022-07-23T05:28:39;2.33;;;2.13;;
34248;SDS011;20508;50.834;3.160;2022-07-23T05:31:17;3.28;;;1.95;;
34248;SDS011;20508;50.834;3.160;2022-07-23T05:34:14;2.60;;;2.40;;
34248;SDS011;20508;50.834;3.160;2022-07-23T05:36:53;3.90;;;3.00;;
34248;SDS011;20508;50.834;3.160;2022-07-23T05:39:46;3.42;;;3.13;;
34248;SDS011;20508;50.834;3.160;2022-07-23T05:42:35;3.20;;;2.90;;
34248;SDS011;20508;50.834;3.160;2022-07-23T05:45:24;3.35;;;3.05;;
34248;SDS011;20508;50.834;3.160;2022-07-23T05:48:03;3.33;;;2.45;;
34248;SDS011;20508;50.834;3.160;2022-07-23T05:50:37;3.78;;;2.72;;
34248;SDS011;20508;50.834;3.160;2022-07-23T05:53:37;2.50;;;2.30;;
34248;SDS011;20508;50.834;3.160;2022-07-23T05:56:25;2.75;;;2.55;;
34248;SDS011;20508;50.834;3.160;2022-07-23T05:59:19;5.72;;;2.70;;
34248;SDS011;20508;50.834;3.160;2022-07-23T06:02:14;2.78;;;2.58;;
34248;SDS011;20508;50.834;3.160;2022-07-23T06:04:56;4.65;;;2.70;;
34248;SDS011;20508;50.834;3.160;2022-07-23T06:07:33;2.63;;;2.25;;
34248;SDS011;20508;50.834;3.160;2022-07-23T06:10:20;3.55;;;2.92;;
34248;SDS011;20508;50.834;3.160;2022-07-23T06:13:03;2.92;;;2.72;;
34248;SDS011;20508;50.834;3.160;2022-07-23T06:15:52;2.95;;;2.58;;
34248;SDS011;20508;50.834;3.160;2022-07-23T06:18:27;4.25;;;3.92;;
34248;SDS011;20508;50.834;3.160;2022-07-23T06:21:19;3.42;;;2.92;;
34248;SDS011;20508;50.834;3.160;2022-07-23T06:27:12;3.47;;;3.17;;
34248;SDS011;20508;50.834;3.160;2022-07-23T06:29:43;3.40;;;2.80;;
34248;SDS011;20508;50.834;3.160;2022-07-23T06:32:26;5.38;;;4.22;;
34248;SDS011;20508;50.834;3.160;2022-07-23T06:35:14;3.63;;;3.33;;
34248;SDS011;20508;50.834;3.160;2022-07-23T06:38:04;3.78;;;3.47;;
34248;SDS011;20508;50.834;3.160;2022-07-23T06:41:03;3.03;;;2.72;;
34248;SDS011;20508;50.834;3.160;2022-07-23T06:44:13;3.70;;;3.22;;
34248;SDS011;20508;50.834;3.160;2022-07-23T06:46:46;3.17;;;2.85;;
34248;SDS011;20508;50.834;3.160;2022-07-23T06:49:22;3.28;;;2.97;;
34248;SDS011;20508;50.834;3.160;2022-07-23T06:52:14;4.03;;;2.92;;
34248;SDS011;20508;50.834;3.160;2022-07-23T06:55:12;5.28;;;4.68;;
34248;SDS011;20508;50.834;3.160;2022-07-23T06:58:02;5.43;;;4.93;;
34248;SDS011;20508;50.834;3.160;2022-07-23T07:04:04;6.15;;;4.50;;
34248;SDS011;20508;50.834;3.160;2022-07-23T07:10:04;4.18;;;3.47;;
34248;SDS011;20508;50.834;3.160;2022-07-23T07:12:43;6.00;;;3.90;;
34248;SDS011;20508;50.834;3.160;2022-07-23T07:15:36;6.55;;;4.18;;
34248;SDS011;20508;50.834;3.160;2022-07-23T07:18:10;4.35;;;3.95;;
34248;SDS011;20508;50.834;3.160;2022-07-23T07:20:46;4.35;;;3.95;;
34248;SDS011;20508;50.834;3.160;2022-07-23T07:23:37;4.20;;;3.70;;
34248;SDS011;20508;50.834;3.160;2022-07-23T07:26:16;4.10;;;3.70;;
34248;SDS011;20508;50.834;3.160;2022-07-23T07:29:07;4.22;;;3.53;;
34248;SDS011;20508;50.834;3.160;2022-07-23T07:44:26;3.95;;;3.55;;
34248;SDS011;20508;50.834;3.160;2022-07-23T07:47:05;3.10;;;2.80;;
34248;SDS011;20508;50.834;3.160;2022-07-23T07:49:44;4.13;;;3.28;;
34248;SDS011;20508;50.834;3.160;2022-07-23T07:55:13;3.60;;;3.30;;
34248;SDS011;20508;50.834;3.160;2022-07-23T07:58:09;3.53;;;3.22;;
34248;SDS011;20508;50.834;3.160;2022-07-23T08:07:18;3.70;;;3.40;;
34248;SDS011;20508;50.834;3.160;2022-07-23T08:13:04;3.28;;;2.97;;
34248;SDS011;20508;50.834;3.160;2022-07-23T08:15:40;5.07;;;4.38;;
34248;SDS011;20508;50.834;3.160;2022-07-23T08:21:26;3.42;;;3.13;;
34248;SDS011;20508;50.834;3.160;2022-07-23T08:24:02;4.10;;;3.40;;
34248;SDS011;20508;50.834;3.160;2022-07-23T08:27:22;5.97;;;4.60;;
34248;SDS011;20508;50.834;3.160;2022-07-23T08:30:07;6.10;;;4.10;;
34248;SDS011;20508;50.834;3.160;2022-07-23T08:35:46;14.02;;;4.88;;
34248;SDS011;20508;50.834;3.160;2022-07-23T08:38:28;13.88;;;4.40;;
34248;SDS011;20508;50.834;3.160;2022-07-23T08:41:09;11.25;;;4.18;;
34248;SDS011;20508;50.834;3.160;2022-07-23T08:43:50;8.43;;;4.32;;
34248;SDS011;20508;50.834;3.160;2022-07-23T08:46:30;6.88;;;4.50;;
34248;SDS011;20508;50.834;3.160;2022-07-23T08:52:44;5.20;;;4.00;;
34248;SDS011;20508;50.834;3.160;2022-07-23T08:55:40;10.40;;;5.50;;
34248;SDS011;20508;50.834;3.160;2022-07-23T08:58:26;5.47;;;4.10;;
34248;SDS011;20508;50.834;3.160;2022-07-23T09:03:53;8.75;;;4.40;;
34248;SDS011;20508;50.834;3.160;2022-07-23T09:06:31;5.55;;;4.03;;
34248;SDS011;20508;50.834;3.160;2022-07-23T09:09:20;5.85;;;4.20;;
34248;SDS011;20508;50.834;3.160;2022-07-23T09:12:06;7.40;;;4.07;;
34248;SDS011;20508;50.834;3.160;2022-07-23T09:14:55;5.00;;;4.45;;
34248;SDS011;20508;50.834;3.160;2022-07-23T09:17:44;5.55;;;4.85;;
34248;SDS011;20508;50.834;3.160;2022-07-23T09:20:38;4.85;;;4.35;;
34248;SDS011;20508;50.834;3.160;2022-07-23T09:26:39;4.20;;;3.67;;
34248;SDS011;20508;50.834;3.160;2022-07-23T09:29:17;5.32;;;3.92;;
34248;SDS011;20508;50.834;3.160;2022-07-23T09:32:04;7.95;;;4.75;;
34248;SDS011;20508;50.834;3.160;2022-07-23T09:34:42;9.40;;;5.40;;
34248;SDS011;20508;50.834;3.160;2022-07-23T09:39:53;8.15;;;4.50;;
34248;SDS011;20508;50.834;3.160;2022-07-23T09:42:57;6.90;;;4.15;;
34248;SDS011;20508;50.834;3.160;2022-07-23T09:45:30;7.28;;;4.60;;
34248;SDS011;20508;50.834;3.160;2022-07-23T09:48:24;7.70;;;4.38;;
34248;SDS011;20508;50.834;3.160;2022-07-23T09:51:03;6.55;;;3.97;;
34248;SDS011;20508;50.834;3.160;2022-07-23T09:53:51;5.28;;;4.32;;
34248;SDS011;20508;50.834;3.160;2022-07-23T09:56:56;5.40;;;4.00;;
34248;SDS011;20508;50.834;3.160;2022-07-23T09:59:31;3.85;;;3.20;;
34248;SDS011;20508;50.834;3.160;2022-07-23T10:02:17;5.63;;;4.20;;
34248;SDS011;20508;50.834;3.160;2022-07-23T10:04:46;5.07;;;3.90;;
34248;SDS011;20508;50.834;3.160;2022-07-23T10:10:26;4.57;;;3.33;;
34248;SDS011;20508;50.834;3.160;2022-07-23T10:12:58;4.80;;;4.30;;
34248;SDS011;20508;50.834;3.160;2022-07-23T10:15:55;6.22;;;4.03;;
34248;SDS011;20508;50.834;3.160;2022-07-23T10:18:33;3.70;;;3.40;;
34248;SDS011;20508;50.834;3.160;2022-07-23T10:21:12;3.58;;;3.28;;
34248;SDS011;20508;50.834;3.160;2022-07-23T10:24:24;4.43;;;3.95;;
34248;SDS011;20508;50.834;3.160;2022-07-23T10:41:33;4.43;;;3.20;;
34248;SDS011;20508;50.834;3.160;2022-07-23T10:44:18;4.63;;;3.42;;
34248;SDS011;20508;50.834;3.160;2022-07-23T10:46:57;7.75;;;3.70;;
34248;SDS011;20508;50.834;3.160;2022-07-23T10:52:44;4.05;;;3.58;;
34248;SDS011;20508;50.834;3.160;2022-07-23T10:58:16;4.95;;;3.63;;
34248;SDS011;20508;50.834;3.160;2022-07-23T11:06:15;6.05;;;3.25;;
34248;SDS011;20508;50.834;3.160;2022-07-23T11:15:10;4.50;;;3.97;;
34248;SDS011;20508;50.834;3.160;2022-07-23T11:18:15;4.28;;;3.88;;
34248;SDS011;20508;50.834;3.160;2022-07-23T11:21:54;3.78;;;3.25;;
34248;SDS011;20508;50.834;3.160;2022-07-23T11:24:23;4.38;;;3.60;;
34248;SDS011;20508;50.834;3.160;2022-07-23T11:30:51;3.78;;;3.30;;
34248;SDS011;20508;50.834;3.160;2022-07-23T11:33:32;4.22;;;3.55;;
34248;SDS011;20508;50.834;3.160;2022-07-23T11:36:03;5.00;;;3.83;;
34248;SDS011;20508;50.834;3.160;2022-07-23T11:39:26;4.22;;;3.47;;
34248;SDS011;20508;50.834;3.160;2022-07-23T11:42:00;4.13;;;3.53;;
34248;SDS011;20508;50.834;3.160;2022-07-23T11:44:37;4.07;;;3.78;;
34248;SDS011;20508;50.834;3.160;2022-07-23T11:47:07;6.18;;;3.63;;
34248;SDS011;20508;50.834;3.160;2022-07-23T11:49:55;3.88;;;3.17;;
34248;SDS011;20508;50.834;3.160;2022-07-23T11:52:26;3.75;;;3.45;;
34248;SDS011;20508;50.834;3.160;2022-07-23T11:55:11;4.47;;;3.70;;
34248;SDS011;20508;50.834;3.160;2022-07-23T11:58:05;3.88;;;3.58;;
34248;SDS011;20508;50.834;3.160;2022-07-23T12:00:40;5.93;;;4.57;;
34248;SDS011;20508;50.834;3.160;2022-07-23T12:03:17;4.65;;;4.25;;
34248;SDS011;20508;50.834;3.160;2022-07-23T12:05:56;5.97;;;4.63;;
34248;SDS011;20508;50.834;3.160;2022-07-23T12:08:25;5.10;;;4.20;;
34248;SDS011;20508;50.834;3.160;2022-07-23T12:11:16;5.32;;;4.82;;
34248;SDS011;20508;50.834;3.160;2022-07-23T12:13:57;5.40;;;4.40;;
34248;SDS011;20508;50.834;3.160;2022-07-23T12:16:33;3.70;;;3.40;;
34248;SDS011;20508;50.834;3.160;2022-07-23T12:19:37;4.40;;;3.85;;
34248;SDS011;20508;50.834;3.160;2022-07-23T12:22:19;4.10;;;3.80;;
34248;SDS011;20508;50.834;3.160;2022-07-23T12:25:00;4.10;;;3.70;;
34248;SDS011;20508;50.834;3.160;2022-07-23T12:27:42;4.90;;;4.40;;
34248;SDS011;20508;50.834;3.160;2022-07-23T12:30:23;3.88;;;3.53;;
34248;SDS011;20508;50.834;3.160;2022-07-23T12:33:00;4.35;;;3.95;;
34248;SDS011;20508;50.834;3.160;2022-07-23T12:35:49;5.28;;;4.40;;
34248;SDS011;20508;50.834;3.160;2022-07-23T12:38:37;4.97;;;4.35;;
34248;SDS011;20508;50.834;3.160;2022-07-23T12:41:20;5.75;;;4.50;;
34248;SDS011;20508;50.834;3.160;2022-07-23T12:43:57;4.28;;;3.97;;
34248;SDS011;20508;50.834;3.160;2022-07-23T12:46:50;4.38;;;4.07;;
34248;SDS011;20508;50.834;3.160;2022-07-23T12:52:28;4.93;;;4.43;;
34248;SDS011;20508;50.834;3.160;2022-07-23T12:55:05;4.05;;;3.65;;
34248;SDS011;20508;50.834;3.160;2022-07-23T12:57:49;4.20;;;3.90;;
34248;SDS011;20508;50.834;3.160;2022-07-23T13:00:52;4.00;;;3.70;;
34248;SDS011;20508;50.834;3.160;2022-07-23T13:09:12;4.07;;;3.75;;
34248;SDS011;20508;50.834;3.160;2022-07-23T13:11:53;5.60;;;4.10;;
34248;SDS011;20508;50.834;3.160;2022-07-23T13:14:48;4.75;;;4.35;;
34248;SDS011;20508;50.834;3.160;2022-07-23T13:17:24;4.72;;;4.30;;
34248;SDS011;20508;50.834;3.160;2022-07-23T13:22:59;4.47;;;4.18;;
34248;SDS011;20508;50.834;3.160;2022-07-23T13:25:31;4.80;;;4.40;;
34248;SDS011;20508;50.834;3.160;2022-07-23T13:28:18;5.35;;;4.60;;
34248;SDS011;20508;50.834;3.160;2022-07-23T13:31:00;5.68;;;5.15;;
34248;SDS011;20508;50.834;3.160;2022-07-23T13:33:40;6.03;;;5.32;;
34248;SDS011;20508;50.834;3.160;2022-07-23T13:36:19;6.20;;;5.47;;
34248;SDS011;20508;50.834;3.160;2022-07-23T13:38:58;5.70;;;5.20;;
34248;SDS011;20508;50.834;3.160;2022-07-23T13:44:27;5.43;;;4.95;;
34248;SDS011;20508;50.834;3.160;2022-07-23T13:46:53;5.20;;;4.70;;
34248;SDS011;20508;50.834;3.160;2022-07-23T13:49:28;7.93;;;6.13;;
34248;SDS011;20508;50.834;3.160;2022-07-23T13:52:05;39.70;;;13.65;;
34248;SDS011;20508;50.834;3.160;2022-07-23T13:54:32;34.70;;;10.70;;
34248;SDS011;20508;50.834;3.160;2022-07-23T13:56:58;25.25;;;9.48;;
34248;SDS011;20508;50.834;3.160;2022-07-23T13:59:35;16.88;;;8.55;;
34248;SDS011;20508;50.834;3.160;2022-07-23T14:02:02;15.13;;;7.25;;
34248;SDS011;20508;50.834;3.160;2022-07-23T14:04:39;13.43;;;5.78;;
34248;SDS011;20508;50.834;3.160;2022-07-23T14:07:13;12.15;;;5.55;;
34248;SDS011;20508;50.834;3.160;2022-07-23T14:09:49;14.57;;;5.20;;
34248;SDS011;20508;50.834;3.160;2022-07-23T14:12:18;6.50;;;4.88;;
34248;SDS011;20508;50.834;3.160;2022-07-23T14:14:56;5.72;;;5.30;;
34248;SDS011;20508;50.834;3.160;2022-07-23T14:17:41;6.78;;;6.18;;
34248;SDS011;20508;50.834;3.160;2022-07-23T14:20:09;9.07;;;7.07;;
34248;SDS011;20508;50.834;3.160;2022-07-23T14:22:42;6.30;;;5.80;;
34248;SDS011;20508;50.834;3.160;2022-07-23T14:25:18;12.18;;;6.65;;
34248;SDS011;20508;50.834;3.160;2022-07-23T14:27:49;9.32;;;6.03;;
34248;SDS011;20508;50.834;3.160;2022-07-23T14:30:28;9.77;;;5.43;;
34248;SDS011;20508;50.834;3.160;2022-07-23T14:32:57;6.72;;;6.13;;
34248;SDS011;20508;50.834;3.160;2022-07-23T14:35:38;7.40;;;6.13;;
34248;SDS011;20508;50.834;3.160;2022-07-23T14:38:25;7.45;;;6.40;;
34248;SDS011;20508;50.834;3.160;2022-07-23T14:40:52;6.50;;;5.90;;
34248;SDS011;20508;50.834;3.160;2022-07-23T14:43:39;6.70;;;5.50;;
34248;SDS011;20508;50.834;3.160;2022-07-23T14:46:16;6.40;;;5.90;;
34248;SDS011;20508;50.834;3.160;2022-07-23T14:48:55;6.00;;;5.50;;
34248;SDS011;20508;50.834;3.160;2022-07-23T14:51:29;6.60;;;6.10;;
34248;SDS011;20508;50.834;3.160;2022-07-23T14:54:19;6.63;;;6.03;;
34248;SDS011;20508;50.834;3.160;2022-07-23T14:56:56;7.45;;;6.75;;
34248;SDS011;20508;50.834;3.160;2022-07-23T14:59:38;6.22;;;5.72;;
34248;SDS011;20508;50.834;3.160;2022-07-23T15:02:18;6.55;;;6.05;;
34248;SDS011;20508;50.834;3.160;2022-07-23T15:04:47;8.27;;;6.18;;
34248;SDS011;20508;50.834;3.160;2022-07-23T15:07:44;6.63;;;5.97;;
34248;SDS011;20508;50.834;3.160;2022-07-23T15:10:20;7.10;;;6.37;;
34248;SDS011;20508;50.834;3.160;2022-07-23T15:12:56;7.03;;;6.13;;
34248;SDS011;20508;50.834;3.160;2022-07-23T15:15:24;8.77;;;7.07;;
34248;SDS011;20508;50.834;3.160;2022-07-23T15:17:56;9.68;;;7.22;;
34248;SDS011;20508;50.834;3.160;2022-07-23T15:20:38;9.40;;;8.13;;
34248;SDS011;20508;50.834;3.160;2022-07-23T15:23:29;10.05;;;7.70;;
34248;SDS011;20508;50.834;3.160;2022-07-23T15:26:07;8.10;;;7.28;;
34248;SDS011;20508;50.834;3.160;2022-07-23T15:28:51;8.05;;;7.45;;
34248;SDS011;20508;50.834;3.160;2022-07-23T15:31:45;7.40;;;6.78;;
34248;SDS011;20508;50.834;3.160;2022-07-23T15:34:21;7.65;;;6.97;;
34248;SDS011;20508;50.834;3.160;2022-07-23T15:37:00;8.07;;;7.30;;
34248;SDS011;20508;50.834;3.160;2022-07-23T15:39:26;8.00;;;7.03;;
34248;SDS011;20508;50.834;3.160;2022-07-23T15:42:05;7.82;;;7.07;;
34248;SDS011;20508;50.834;3.160;2022-07-23T15:44:44;7.80;;;7.10;;
34248;SDS011;20508;50.834;3.160;2022-07-23T15:47:25;7.95;;;7.25;;
34248;SDS011;20508;50.834;3.160;2022-07-23T15:49:54;9.48;;;6.72;;
34248;SDS011;20508;50.834;3.160;2022-07-23T15:52:48;7.30;;;6.75;;
34248;SDS011;20508;50.834;3.160;2022-07-23T15:55:24;7.55;;;6.90;;
34248;SDS011;20508;50.834;3.160;2022-07-23T15:58:05;6.47;;;5.97;;
34248;SDS011;20508;50.834;3.160;2022-07-23T16:00:38;7.22;;;6.72;;
34248;SDS011;20508;50.834;3.160;2022-07-23T16:03:05;7.20;;;6.63;;
34248;SDS011;20508;50.834;3.160;2022-07-23T16:05:34;6.60;;;6.10;;
34248;SDS011;20508;50.834;3.160;2022-07-23T16:08:24;7.45;;;6.78;;
34248;SDS011;20508;50.834;3.160;2022-07-23T16:11:04;6.75;;;6.22;;
34248;SDS011;20508;50.834;3.160;2022-07-23T16:13:52;6.32;;;5.82;;
34248;SDS011;20508;50.834;3.160;2022-07-23T16:16:37;6.50;;;6.00;;
34248;SDS011;20508;50.834;3.160;2022-07-23T16:19:14;7.03;;;6.32;;
34248;SDS011;20508;50.834;3.160;2022-07-23T16:21:52;6.63;;;5.93;;
34248;SDS011;20508;50.834;3.160;2022-07-23T16:24:27;6.72;;;6.22;;
34248;SDS011;20508;50.834;3.160;2022-07-23T16:27:16;7.03;;;6.25;;
34248;SDS011;20508;50.834;3.160;2022-07-23T16:29:49;7.40;;;6.68;;
34248;SDS011;20508;50.834;3.160;2022-07-23T16:32:20;7.65;;;7.00;;
34248;SDS011;20508;50.834;3.160;2022-07-23T16:34:59;7.85;;;7.03;;
34248;SDS011;20508;50.834;3.160;2022-07-23T16:37:37;7.65;;;7.05;;
34248;SDS011;20508;50.834;3.160;2022-07-23T16:40:21;7.30;;;6.70;;
34248;SDS011;20508;50.834;3.160;2022-07-23T16:43:05;8.15;;;7.45;;
34248;SDS011;20508;50.834;3.160;2022-07-23T16:45:34;10.90;;;9.98;;
34248;SDS011;20508;50.834;3.160;2022-07-23T16:48:02;10.98;;;9.98;;
34248;SDS011;20508;50.834;3.160;2022-07-23T16:53:45;9.88;;;8.98;;
34248;SDS011;20508;50.834;3.160;2022-07-23T16:56:23;11.85;;;10.60;;
34248;SDS011;20508;50.834;3.160;2022-07-23T16:58:55;9.77;;;8.98;;
34248;SDS011;20508;50.834;3.160;2022-07-23T17:01:53;10.10;;;9.30;;
34248;SDS011;20508;50.834;3.160;2022-07-23T17:04:36;9.45;;;8.38;;
34248;SDS011;20508;50.834;3.160;2022-07-23T17:07:03;10.85;;;8.93;;
34248;SDS011;20508;50.834;3.160;2022-07-23T17:09:33;8.77;;;7.97;;
34248;SDS011;20508;50.834;3.160;2022-07-23T17:12:37;8.90;;;8.10;;
34248;SDS011;20508;50.834;3.160;2022-07-23T17:15:23;7.90;;;7.20;;
34248;SDS011;20508;50.834;3.160;2022-07-23T17:17:56;8.80;;;8.10;;
34248;SDS011;20508;50.834;3.160;2022-07-23T17:20:39;8.32;;;7.55;;
34248;SDS011;20508;50.834;3.160;2022-07-23T17:23:33;9.23;;;8.32;;
34248;SDS011;20508;50.834;3.160;2022-07-23T17:26:08;10.32;;;7.32;;
34248;SDS011;20508;50.834;3.160;2022-07-23T17:28:37;8.98;;;7.95;;
34248;SDS011;20508;50.834;3.160;2022-07-23T17:31:08;8.00;;;7.20;;
34248;SDS011;20508;50.834;3.160;2022-07-23T17:33:53;10.88;;;7.80;;
34248;SDS011;20508;50.834;3.160;2022-07-23T17:36:39;14.70;;;7.60;;
34248;SDS011;20508;50.834;3.160;2022-07-23T17:39:26;7.45;;;6.80;;
34248;SDS011;20508;50.834;3.160;2022-07-23T17:42:15;7.57;;;6.90;;
34248;SDS011;20508;50.834;3.160;2022-07-23T17:44:58;8.57;;;7.22;;
34248;SDS011;20508;50.834;3.160;2022-07-23T17:47:42;8.85;;;7.28;;
34248;SDS011;20508;50.834;3.160;2022-07-23T17:50:18;8.63;;;7.40;;
34248;SDS011;20508;50.834;3.160;2022-07-23T17:52:54;8.32;;;7.55;;
34248;SDS011;20508;50.834;3.160;2022-07-23T17:55:36;9.18;;;7.07;;
34248;SDS011;20508;50.834;3.160;2022-07-23T17:58:19;7.88;;;7.03;;
34248;SDS011;20508;50.834;3.160;2022-07-23T18:01:04;7.70;;;6.97;;
34248;SDS011;20508;50.834;3.160;2022-07-23T18:03:38;8.00;;;7.40;;
34248;SDS011;20508;50.834;3.160;2022-07-23T18:06:14;7.60;;;6.90;;
34248;SDS011;20508;50.834;3.160;2022-07-23T18:08:43;8.63;;;7.70;;
34248;SDS011;20508;50.834;3.160;2022-07-23T18:11:42;7.25;;;6.65;;
34248;SDS011;20508;50.834;3.160;2022-07-23T18:14:19;12.23;;;8.00;;
34248;SDS011;20508;50.834;3.160;2022-07-23T18:17:00;9.18;;;8.30;;
34248;SDS011;20508;50.834;3.160;2022-07-23T18:19:31;10.18;;;8.00;;
34248;SDS011;20508;50.834;3.160;2022-07-23T18:22:02;7.90;;;7.20;;
34248;SDS011;20508;50.834;3.160;2022-07-23T18:24:40;8.93;;;8.13;;
34248;SDS011;20508;50.834;3.160;2022-07-23T18:27:39;7.80;;;7.15;;
34248;SDS011;20508;50.834;3.160;2022-07-23T18:30:08;7.95;;;7.07;;
34248;SDS011;20508;50.834;3.160;2022-07-23T18:32:45;9.00;;;8.18;;
34248;SDS011;20508;50.834;3.160;2022-07-23T18:35:14;9.00;;;6.85;;
34248;SDS011;20508;50.834;3.160;2022-07-23T18:37:43;7.70;;;7.10;;
34248;SDS011;20508;50.834;3.160;2022-07-23T18:40:27;7.22;;;6.70;;
34248;SDS011;20508;50.834;3.160;2022-07-23T18:46:03;7.68;;;7.07;;